sensor_id;sensor_type;location;lat;lon;timestamp;pressure;altitude;pressure_sealevel;temperature
21336;BMP180;69435;52.670;13.544;2023-10-09T00:02:28;101524.00;;;15.20
21336;BMP180;69435;52.670;13.544;2023-10-09T00:05:15;101566.00;;;15.20
21336;BMP180;69435;52.670;13.544;2023-10-09T00:08:15;101588.00;;;15.10
21336;BMP180;69435;52.670;13.544;2023-10-09T00:11:07;101571.00;;;15.10
21336;BMP180;69435;52.670;13.544;2023-10-09T00:14:02;101578.00;;;15.00
21336;BMP180;69435;52.670;13.544;2023-10-09T00:16:52;101573.00;;;15.00
21336;BMP180;69435;52.670;13.544;2023-10-09T00:19:47;101573.00;;;15.00
21336;BMP180;69435;52.670;13.544;2023-10-09T00:22:37;101524.00;;;15.00
21336;BMP180;69435;52.670;13.544;2023-10-09T00:25:29;101549.00;;;14.90
21336;BMP180;69435;52.670;13.544;2023-10-09T00:28:16;101562.00;;;14.90
21336;BMP180;69435;52.670;13.544;2023-10-09T00:31:04;101544.00;;;14.80
21336;BMP180;69435;52.670;13.544;2023-10-09T00:33:53;101547.00;;;14.70
21336;BMP180;69435;52.670;13.544;2023-10-09T00:36:41;101539.00;;;14.70
21336;BMP180;69435;52.670;13.544;2023-10-09T00:39:35;101534.00;;;14.60
21336;BMP180;69435;52.670;13.544;2023-10-09T00:42:23;101546.00;;;14.60
21336;BMP180;69435;52.670;13.544;2023-10-09T00:45:19;101513.00;;;14.60
21336;BMP180;69435;52.670;13.544;2023-10-09T00:48:11;101535.00;;;14.60
21336;BMP180;69435;52.670;13.544;2023-10-09T00:51:00;101526.00;;;14.50
21336;BMP180;69435;52.670;13.544;2023-10-09T00:53:49;101505.00;;;14.50
21336;BMP180;69435;52.670;13.544;2023-10-09T00:56:40;101506.00;;;14.50
21336;BMP180;69435;52.670;13.544;2023-10-09T00:59:30;101521.00;;;14.50
21336;BMP180;69435;52.670;13.544;2023-10-09T01:02:16;101491.00;;;14.50
21336;BMP180;69435;52.670;13.544;2023-10-09T01:05:05;101483.00;;;14.50
21336;BMP180;69435;52.670;13.544;2023-10-09T01:07:57;101474.00;;;14.50
21336;BMP180;69435;52.670;13.544;2023-10-09T01:10:46;101449.00;;;14.50
21336;BMP180;69435;52.670;13.544;2023-10-09T01:13:39;101488.00;;;14.50
21336;BMP180;69435;52.670;13.544;2023-10-09T01:16:39;101491.00;;;14.50
21336;BMP180;69435;52.670;13.544;2023-10-09T01:19:28;101484.00;;;14.40
21336;BMP180;69435;52.670;13.544;2023-10-09T01:22:16;101464.00;;;14.40
21336;BMP180;69435;52.670;13.544;2023-10-09T01:25:07;101456.00;;;14.40
21336;BMP180;69435;52.670;13.544;2023-10-09T01:27:53;101424.00;;;14.40
21336;BMP180;69435;52.670;13.544;2023-10-09T01:30:39;101428.00;;;14.50
21336;BMP180;69435;52.670;13.544;2023-10-09T01:33:27;101424.00;;;14.40
21336;BMP180;69435;52.670;13.544;2023-10-09T01:36:14;101410.00;;;14.40
21336;BMP180;69435;52.670;13.544;2023-10-09T01:39:01;101420.00;;;14.40
21336;BMP180;69435;52.670;13.544;2023-10-09T01:42:07;101411.00;;;14.30
21336;BMP180;69435;52.670;13.544;2023-10-09T01:44:53;101379.00;;;14.30
21336;BMP180;69435;52.670;13.544;2023-10-09T01:47:39;101369.00;;;14.30
21336;BMP180;69435;52.670;13.544;2023-10-09T01:50:25;101347.00;;;14.30
21336;BMP180;69435;52.670;13.544;2023-10-09T01:53:16;101319.00;;;14.30
21336;BMP180;69435;52.670;13.544;2023-10-09T01:56:11;101365.00;;;14.30
21336;BMP180;69435;52.670;13.544;2023-10-09T01:59:03;101361.00;;;14.30
21336;BMP180;69435;52.670;13.544;2023-10-09T02:01:51;101341.00;;;14.20
21336;BMP180;69435;52.670;13.544;2023-10-09T02:04:40;101363.00;;;14.20
21336;BMP180;69435;52.670;13.544;2023-10-09T02:07:26;101330.00;;;14.20
21336;BMP180;69435;52.670;13.544;2023-10-09T02:10:25;101330.00;;;14.20
21336;BMP180;69435;52.670;13.544;2023-10-09T02:13:17;101328.00;;;14.20
21336;BMP180;69435;52.670;13.544;2023-10-09T02:16:03;101334.00;;;14.30
21336;BMP180;69435;52.670;13.544;2023-10-09T02:19:02;101318.00;;;14.30
21336;BMP180;69435;52.670;13.544;2023-10-09T02:21:53;101308.00;;;14.30
21336;BMP180;69435;52.670;13.544;2023-10-09T02:24:45;101324.00;;;14.30
21336;BMP180;69435;52.670;13.544;2023-10-09T02:27:34;101291.00;;;14.30
21336;BMP180;69435;52.670;13.544;2023-10-09T02:30:30;101344.00;;;14.30
21336;BMP180;69435;52.670;13.544;2023-10-09T02:33:20;101314.00;;;14.30
21336;BMP180;69435;52.670;13.544;2023-10-09T02:36:13;101296.00;;;14.30
21336;BMP180;69435;52.670;13.544;2023-10-09T02:38:59;101304.00;;;14.30
21336;BMP180;69435;52.670;13.544;2023-10-09T02:41:45;101304.00;;;14.30
21336;BMP180;69435;52.670;13.544;2023-10-09T02:44:35;101307.00;;;14.30
21336;BMP180;69435;52.670;13.544;2023-10-09T02:47:26;101310.00;;;14.30
21336;BMP180;69435;52.670;13.544;2023-10-09T02:50:17;101316.00;;;14.30
21336;BMP180;69435;52.670;13.544;2023-10-09T02:53:06;101289.00;;;14.30
21336;BMP180;69435;52.670;13.544;2023-10-09T02:55:55;101281.00;;;14.30
21336;BMP180;69435;52.670;13.544;2023-10-09T02:59:08;101303.00;;;14.30
21336;BMP180;69435;52.670;13.544;2023-10-09T03:01:54;101273.00;;;14.30
21336;BMP180;69435;52.670;13.544;2023-10-09T03:04:40;101270.00;;;14.30
21336;BMP180;69435;52.670;13.544;2023-10-09T03:07:27;101294.00;;;14.30
21336;BMP180;69435;52.670;13.544;2023-10-09T03:10:13;101278.00;;;14.20
21336;BMP180;69435;52.670;13.544;2023-10-09T03:12:59;101272.00;;;14.20
21336;BMP180;69435;52.670;13.544;2023-10-09T03:15:48;101232.00;;;14.20
21336;BMP180;69435;52.670;13.544;2023-10-09T03:18:37;101243.00;;;14.20
21336;BMP180;69435;52.670;13.544;2023-10-09T03:21:23;101248.00;;;14.20
21336;BMP180;69435;52.670;13.544;2023-10-09T03:24:09;101234.00;;;14.20
21336;BMP180;69435;52.670;13.544;2023-10-09T03:26:57;101249.00;;;14.20
21336;BMP180;69435;52.670;13.544;2023-10-09T03:29:43;101228.00;;;14.20
21336;BMP180;69435;52.670;13.544;2023-10-09T03:32:35;101223.00;;;14.20
21336;BMP180;69435;52.670;13.544;2023-10-09T03:35:22;101205.00;;;14.20
21336;BMP180;69435;52.670;13.544;2023-10-09T03:38:13;101199.00;;;14.10
21336;BMP180;69435;52.670;13.544;2023-10-09T03:41:04;101207.00;;;14.10
21336;BMP180;69435;52.670;13.544;2023-10-09T03:43:53;101170.00;;;14.10
21336;BMP180;69435;52.670;13.544;2023-10-09T03:46:40;101192.00;;;13.90
21336;BMP180;69435;52.670;13.544;2023-10-09T03:49:30;101166.00;;;14.10
21336;BMP180;69435;52.670;13.544;2023-10-09T03:52:18;101158.00;;;14.10
21336;BMP180;69435;52.670;13.544;2023-10-09T03:55:05;101133.00;;;14.00
21336;BMP180;69435;52.670;13.544;2023-10-09T03:57:57;101200.00;;;14.10
21336;BMP180;69435;52.670;13.544;2023-10-09T04:00:45;101214.00;;;14.10
21336;BMP180;69435;52.670;13.544;2023-10-09T04:03:31;101258.00;;;14.10
21336;BMP180;69435;52.670;13.544;2023-10-09T04:06:16;101235.00;;;14.20
21336;BMP180;69435;52.670;13.544;2023-10-09T04:09:05;101238.00;;;14.20
21336;BMP180;69435;52.670;13.544;2023-10-09T04:12:04;101188.00;;;14.20
21336;BMP180;69435;52.670;13.544;2023-10-09T04:14:56;101178.00;;;14.20
21336;BMP180;69435;52.670;13.544;2023-10-09T04:17:49;101179.00;;;14.30
21336;BMP180;69435;52.670;13.544;2023-10-09T04:20:37;101164.00;;;14.30
21336;BMP180;69435;52.670;13.544;2023-10-09T04:23:42;101139.00;;;14.20
21336;BMP180;69435;52.670;13.544;2023-10-09T04:26:54;101157.00;;;14.20
21336;BMP180;69435;52.670;13.544;2023-10-09T04:29:43;101129.00;;;14.20
21336;BMP180;69435;52.670;13.544;2023-10-09T04:32:33;101179.00;;;14.20
21336;BMP180;69435;52.670;13.544;2023-10-09T04:35:20;101147.00;;;14.20
21336;BMP180;69435;52.670;13.544;2023-10-09T04:38:10;101159.00;;;14.20
21336;BMP180;69435;52.670;13.544;2023-10-09T04:40:56;101163.00;;;14.20
21336;BMP180;69435;52.670;13.544;2023-10-09T04:43:45;101168.00;;;14.20
21336;BMP180;69435;52.670;13.544;2023-10-09T04:46:32;101165.00;;;14.20
21336;BMP180;69435;52.670;13.544;2023-10-09T04:49:29;101175.00;;;14.20
21336;BMP180;69435;52.670;13.544;2023-10-09T04:52:17;101194.00;;;14.20
21336;BMP180;69435;52.670;13.544;2023-10-09T04:55:25;101171.00;;;14.20
21336;BMP180;69435;52.670;13.544;2023-10-09T04:58:11;101173.00;;;14.30
21336;BMP180;69435;52.670;13.544;2023-10-09T05:01:09;101155.00;;;14.30
21336;BMP180;69435;52.670;13.544;2023-10-09T05:03:59;101177.00;;;14.30
21336;BMP180;69435;52.670;13.544;2023-10-09T05:06:49;101167.00;;;14.20
21336;BMP180;69435;52.670;13.544;2023-10-09T05:09:41;101139.00;;;14.20
21336;BMP180;69435;52.670;13.544;2023-10-09T05:12:41;101118.00;;;14.20
21336;BMP180;69435;52.670;13.544;2023-10-09T05:15:33;101137.00;;;14.30
21336;BMP180;69435;52.670;13.544;2023-10-09T05:18:20;101138.00;;;14.20
21336;BMP180;69435;52.670;13.544;2023-10-09T05:21:13;101135.00;;;14.20
21336;BMP180;69435;52.670;13.544;2023-10-09T05:24:04;101157.00;;;14.20
21336;BMP180;69435;52.670;13.544;2023-10-09T05:26:59;101140.00;;;14.20
21336;BMP180;69435;52.670;13.544;2023-10-09T05:30:04;101150.00;;;14.20
21336;BMP180;69435;52.670;13.544;2023-10-09T05:33:09;101145.00;;;14.20
21336;BMP180;69435;52.670;13.544;2023-10-09T05:36:17;101144.00;;;14.20
21336;BMP180;69435;52.670;13.544;2023-10-09T05:39:06;101120.00;;;14.20
21336;BMP180;69435;52.670;13.544;2023-10-09T05:42:07;101141.00;;;14.20
21336;BMP180;69435;52.670;13.544;2023-10-09T05:45:16;101100.00;;;14.10
21336;BMP180;69435;52.670;13.544;2023-10-09T05:48:03;101134.00;;;14.10
21336;BMP180;69435;52.670;13.544;2023-10-09T05:50:49;101126.00;;;14.10
21336;BMP180;69435;52.670;13.544;2023-10-09T05:53:57;101140.00;;;14.20
21336;BMP180;69435;52.670;13.544;2023-10-09T05:57:09;101108.00;;;14.20
21336;BMP180;69435;52.670;13.544;2023-10-09T06:00:14;101132.00;;;14.20
21336;BMP180;69435;52.670;13.544;2023-10-09T06:03:20;101120.00;;;14.20
21336;BMP180;69435;52.670;13.544;2023-10-09T06:06:06;101116.00;;;14.20
21336;BMP180;69435;52.670;13.544;2023-10-09T06:08:52;101116.00;;;14.30
21336;BMP180;69435;52.670;13.544;2023-10-09T06:11:56;101118.00;;;14.30
21336;BMP180;69435;52.670;13.544;2023-10-09T06:15:03;101135.00;;;14.40
21336;BMP180;69435;52.670;13.544;2023-10-09T06:18:24;101138.00;;;14.40
21336;BMP180;69435;52.670;13.544;2023-10-09T06:21:18;101123.00;;;14.50
21336;BMP180;69435;52.670;13.544;2023-10-09T06:24:27;101107.00;;;14.50
21336;BMP180;69435;52.670;13.544;2023-10-09T06:27:20;101104.00;;;14.60
21336;BMP180;69435;52.670;13.544;2023-10-09T06:30:34;101102.00;;;14.60
21336;BMP180;69435;52.670;13.544;2023-10-09T06:33:21;101071.00;;;14.60
21336;BMP180;69435;52.670;13.544;2023-10-09T06:36:15;101103.00;;;14.60
21336;BMP180;69435;52.670;13.544;2023-10-09T06:39:03;101119.00;;;14.70
21336;BMP180;69435;52.670;13.544;2023-10-09T06:42:08;101096.00;;;14.70
21336;BMP180;69435;52.670;13.544;2023-10-09T06:45:16;101112.00;;;14.80
21336;BMP180;69435;52.670;13.544;2023-10-09T06:48:03;101047.00;;;14.90
21336;BMP180;69435;52.670;13.544;2023-10-09T06:51:10;101119.00;;;14.90
21336;BMP180;69435;52.670;13.544;2023-10-09T06:54:11;101117.00;;;14.90
21336;BMP180;69435;52.670;13.544;2023-10-09T06:57:01;101095.00;;;14.90
21336;BMP180;69435;52.670;13.544;2023-10-09T06:59:58;101120.00;;;15.00
21336;BMP180;69435;52.670;13.544;2023-10-09T07:03:03;101088.00;;;15.00
21336;BMP180;69435;52.670;13.544;2023-10-09T07:06:09;101088.00;;;15.00
21336;BMP180;69435;52.670;13.544;2023-10-09T07:09:09;101093.00;;;15.10
21336;BMP180;69435;52.670;13.544;2023-10-09T07:11:55;101075.00;;;15.10
21336;BMP180;69435;52.670;13.544;2023-10-09T07:14:46;101074.00;;;15.20
21336;BMP180;69435;52.670;13.544;2023-10-09T07:17:32;101036.00;;;15.30
21336;BMP180;69435;52.670;13.544;2023-10-09T07:20:20;101082.00;;;15.30
21336;BMP180;69435;52.670;13.544;2023-10-09T07:23:26;101045.00;;;15.40
21336;BMP180;69435;52.670;13.544;2023-10-09T07:26:18;101075.00;;;15.40
21336;BMP180;69435;52.670;13.544;2023-10-09T07:29:05;101095.00;;;15.50
21336;BMP180;69435;52.670;13.544;2023-10-09T07:32:07;101095.00;;;15.40
21336;BMP180;69435;52.670;13.544;2023-10-09T07:34:58;101058.00;;;15.40
21336;BMP180;69435;52.670;13.544;2023-10-09T07:37:44;101104.00;;;15.40
21336;BMP180;69435;52.670;13.544;2023-10-09T07:40:41;101114.00;;;15.40
21336;BMP180;69435;52.670;13.544;2023-10-09T07:43:45;101128.00;;;15.40
21336;BMP180;69435;52.670;13.544;2023-10-09T07:46:32;101105.00;;;15.40
21336;BMP180;69435;52.670;13.544;2023-10-09T07:49:37;101125.00;;;15.50
21336;BMP180;69435;52.670;13.544;2023-10-09T07:52:23;101108.00;;;15.50
21336;BMP180;69435;52.670;13.544;2023-10-09T07:55:11;101123.00;;;15.50
21336;BMP180;69435;52.670;13.544;2023-10-09T07:58:12;101126.00;;;15.60
21336;BMP180;69435;52.670;13.544;2023-10-09T08:00:58;101129.00;;;15.60
21336;BMP180;69435;52.670;13.544;2023-10-09T08:04:07;101118.00;;;15.60
21336;BMP180;69435;52.670;13.544;2023-10-09T08:07:10;101127.00;;;15.60
21336;BMP180;69435;52.670;13.544;2023-10-09T08:10:07;101126.00;;;15.60
21336;BMP180;69435;52.670;13.544;2023-10-09T08:13:05;101140.00;;;15.60
21336;BMP180;69435;52.670;13.544;2023-10-09T08:16:26;101141.00;;;15.70
21336;BMP180;69435;52.670;13.544;2023-10-09T08:19:21;101148.00;;;15.70
21336;BMP180;69435;52.670;13.544;2023-10-09T08:22:30;101152.00;;;15.80
21336;BMP180;69435;52.670;13.544;2023-10-09T08:25:16;101144.00;;;15.80
21336;BMP180;69435;52.670;13.544;2023-10-09T08:28:19;101143.00;;;15.80
21336;BMP180;69435;52.670;13.544;2023-10-09T08:31:23;101140.00;;;15.80
21336;BMP180;69435;52.670;13.544;2023-10-09T08:34:30;101140.00;;;15.80
21336;BMP180;69435;52.670;13.544;2023-10-09T08:37:34;101143.00;;;15.80
21336;BMP180;69435;52.670;13.544;2023-10-09T08:40:20;101144.00;;;15.90
21336;BMP180;69435;52.670;13.544;2023-10-09T08:43:17;101137.00;;;15.90
21336;BMP180;69435;52.670;13.544;2023-10-09T08:46:05;101144.00;;;15.90
21336;BMP180;69435;52.670;13.544;2023-10-09T08:48:51;101134.00;;;16.00
21336;BMP180;69435;52.670;13.544;2023-10-09T08:51:37;101141.00;;;16.00
21336;BMP180;69435;52.670;13.544;2023-10-09T08:54:23;101151.00;;;16.00
21336;BMP180;69435;52.670;13.544;2023-10-09T08:57:09;101132.00;;;16.00
21336;BMP180;69435;52.670;13.544;2023-10-09T08:59:55;101133.00;;;16.10
21336;BMP180;69435;52.670;13.544;2023-10-09T09:02:42;101125.00;;;16.10
21336;BMP180;69435;52.670;13.544;2023-10-09T09:05:29;101103.00;;;16.10
21336;BMP180;69435;52.670;13.544;2023-10-09T09:08:27;101116.00;;;16.20
21336;BMP180;69435;52.670;13.544;2023-10-09T09:11:17;101112.00;;;16.30
21336;BMP180;69435;52.670;13.544;2023-10-09T09:14:05;101129.00;;;16.30
21336;BMP180;69435;52.670;13.544;2023-10-09T09:16:51;101081.00;;;16.40
21336;BMP180;69435;52.670;13.544;2023-10-09T09:19:38;101120.00;;;16.40
21336;BMP180;69435;52.670;13.544;2023-10-09T09:22:24;101112.00;;;16.30
21336;BMP180;69435;52.670;13.544;2023-10-09T09:25:12;101122.00;;;16.40
21336;BMP180;69435;52.670;13.544;2023-10-09T09:27:58;101123.00;;;16.40
21336;BMP180;69435;52.670;13.544;2023-10-09T09:31:08;101119.00;;;16.20
21336;BMP180;69435;52.670;13.544;2023-10-09T09:33:59;101111.00;;;16.40
21336;BMP180;69435;52.670;13.544;2023-10-09T09:36:51;101137.00;;;16.40
21336;BMP180;69435;52.670;13.544;2023-10-09T09:39:42;101118.00;;;16.30
21336;BMP180;69435;52.670;13.544;2023-10-09T09:42:29;101117.00;;;16.30
21336;BMP180;69435;52.670;13.544;2023-10-09T09:45:18;101127.00;;;16.30
21336;BMP180;69435;52.670;13.544;2023-10-09T09:48:09;101135.00;;;16.30
21336;BMP180;69435;52.670;13.544;2023-10-09T09:50:56;101124.00;;;16.20
21336;BMP180;69435;52.670;13.544;2023-10-09T09:53:42;101146.00;;;16.20
21336;BMP180;69435;52.670;13.544;2023-10-09T09:56:37;101132.00;;;16.20
21336;BMP180;69435;52.670;13.544;2023-10-09T09:59:26;101142.00;;;16.30
21336;BMP180;69435;52.670;13.544;2023-10-09T10:02:38;101142.00;;;16.30
21336;BMP180;69435;52.670;13.544;2023-10-09T10:05:27;101140.00;;;16.40
21336;BMP180;69435;52.670;13.544;2023-10-09T10:08:20;101149.00;;;16.50
21336;BMP180;69435;52.670;13.544;2023-10-09T10:11:06;101123.00;;;16.60
21336;BMP180;69435;52.670;13.544;2023-10-09T10:13:59;101123.00;;;16.60
21336;BMP180;69435;52.670;13.544;2023-10-09T10:17:07;101100.00;;;16.70
21336;BMP180;69435;52.670;13.544;2023-10-09T10:20:07;101124.00;;;16.80
21336;BMP180;69435;52.670;13.544;2023-10-09T10:23:19;101127.00;;;17.00
21336;BMP180;69435;52.670;13.544;2023-10-09T10:26:21;101105.00;;;17.30
21336;BMP180;69435;52.670;13.544;2023-10-09T10:29:18;101110.00;;;17.40
21336;BMP180;69435;52.670;13.544;2023-10-09T10:32:12;101102.00;;;17.50
21336;BMP180;69435;52.670;13.544;2023-10-09T10:34:58;101081.00;;;17.60
21336;BMP180;69435;52.670;13.544;2023-10-09T10:37:52;101111.00;;;17.70
21336;BMP180;69435;52.670;13.544;2023-10-09T10:40:46;101094.00;;;17.70
21336;BMP180;69435;52.670;13.544;2023-10-09T10:43:32;101101.00;;;17.70
21336;BMP180;69435;52.670;13.544;2023-10-09T10:46:33;101113.00;;;17.70
21336;BMP180;69435;52.670;13.544;2023-10-09T10:49:23;101082.00;;;17.70
21336;BMP180;69435;52.670;13.544;2023-10-09T10:52:21;101101.00;;;17.80
21336;BMP180;69435;52.670;13.544;2023-10-09T10:55:09;101101.00;;;17.80
21336;BMP180;69435;52.670;13.544;2023-10-09T10:58:19;101101.00;;;17.90
21336;BMP180;69435;52.670;13.544;2023-10-09T11:01:21;101103.00;;;18.00
21336;BMP180;69435;52.670;13.544;2023-10-09T11:04:12;101095.00;;;18.00
21336;BMP180;69435;52.670;13.544;2023-10-09T11:07:01;101112.00;;;18.00
21336;BMP180;69435;52.670;13.544;2023-10-09T11:10:10;101091.00;;;17.90
21336;BMP180;69435;52.670;13.544;2023-10-09T11:13:01;101100.00;;;17.80
21336;BMP180;69435;52.670;13.544;2023-10-09T11:16:08;101093.00;;;17.90
21336;BMP180;69435;52.670;13.544;2023-10-09T11:19:00;101068.00;;;18.00
21336;BMP180;69435;52.670;13.544;2023-10-09T11:22:00;101080.00;;;18.00
21336;BMP180;69435;52.670;13.544;2023-10-09T11:24:52;101047.00;;;18.00
21336;BMP180;69435;52.670;13.544;2023-10-09T11:27:56;101066.00;;;18.10
21336;BMP180;69435;52.670;13.544;2023-10-09T11:30:42;101053.00;;;18.20
21336;BMP180;69435;52.670;13.544;2023-10-09T11:33:46;101060.00;;;18.30
21336;BMP180;69435;52.670;13.544;2023-10-09T11:36:34;101046.00;;;18.30
21336;BMP180;69435;52.670;13.544;2023-10-09T11:39:26;101061.00;;;18.40
21336;BMP180;69435;52.670;13.544;2023-10-09T11:42:19;101091.00;;;18.60
21336;BMP180;69435;52.670;13.544;2023-10-09T11:45:27;101062.00;;;18.70
21336;BMP180;69435;52.670;13.544;2023-10-09T11:48:18;101070.00;;;18.80
21336;BMP180;69435;52.670;13.544;2023-10-09T11:51:27;101029.00;;;18.90
21336;BMP180;69435;52.670;13.544;2023-10-09T11:54:30;101036.00;;;18.90
21336;BMP180;69435;52.670;13.544;2023-10-09T11:57:17;101035.00;;;18.80
21336;BMP180;69435;52.670;13.544;2023-10-09T12:00:04;101032.00;;;18.70
21336;BMP180;69435;52.670;13.544;2023-10-09T12:03:09;101052.00;;;18.50
21336;BMP180;69435;52.670;13.544;2023-10-09T12:06:01;101035.00;;;18.70
21336;BMP180;69435;52.670;13.544;2023-10-09T12:08:57;101039.00;;;18.70
21336;BMP180;69435;52.670;13.544;2023-10-09T12:11:44;101041.00;;;18.90
21336;BMP180;69435;52.670;13.544;2023-10-09T12:14:38;101049.00;;;18.90
21336;BMP180;69435;52.670;13.544;2023-10-09T12:17:25;101032.00;;;19.00
21336;BMP180;69435;52.670;13.544;2023-10-09T12:20:13;101017.00;;;19.00
21336;BMP180;69435;52.670;13.544;2023-10-09T12:23:16;101037.00;;;19.10
21336;BMP180;69435;52.670;13.544;2023-10-09T12:26:03;101044.00;;;19.00
21336;BMP180;69435;52.670;13.544;2023-10-09T12:28:49;101053.00;;;19.10
21336;BMP180;69435;52.670;13.544;2023-10-09T12:31:36;101020.00;;;19.20
21336;BMP180;69435;52.670;13.544;2023-10-09T12:34:22;101037.00;;;19.20
21336;BMP180;69435;52.670;13.544;2023-10-09T12:37:11;101036.00;;;19.30
21336;BMP180;69435;52.670;13.544;2023-10-09T12:39:58;101015.00;;;19.30
21336;BMP180;69435;52.670;13.544;2023-10-09T12:42:44;101045.00;;;19.30
21336;BMP180;69435;52.670;13.544;2023-10-09T12:45:34;101059.00;;;19.30
21336;BMP180;69435;52.670;13.544;2023-10-09T12:48:20;101037.00;;;19.30
21336;BMP180;69435;52.670;13.544;2023-10-09T12:51:06;101048.00;;;19.20
21336;BMP180;69435;52.670;13.544;2023-10-09T12:53:52;101026.00;;;19.10
21336;BMP180;69435;52.670;13.544;2023-10-09T12:56:44;101032.00;;;19.00
21336;BMP180;69435;52.670;13.544;2023-10-09T12:59:34;101038.00;;;19.00
21336;BMP180;69435;52.670;13.544;2023-10-09T13:02:21;101033.00;;;18.90
21336;BMP180;69435;52.670;13.544;2023-10-09T13:05:16;101050.00;;;18.70
21336;BMP180;69435;52.670;13.544;2023-10-09T13:08:11;101041.00;;;18.50
21336;BMP180;69435;52.670;13.544;2023-10-09T13:11:03;101055.00;;;18.40
21336;BMP180;69435;52.670;13.544;2023-10-09T13:14:02;101024.00;;;18.30
21336;BMP180;69435;52.670;13.544;2023-10-09T13:16:57;101051.00;;;18.20
21336;BMP180;69435;52.670;13.544;2023-10-09T13:19:43;101048.00;;;18.10
21336;BMP180;69435;52.670;13.544;2023-10-09T13:22:29;101052.00;;;18.10
21336;BMP180;69435;52.670;13.544;2023-10-09T13:25:16;101044.00;;;18.00
21336;BMP180;69435;52.670;13.544;2023-10-09T13:28:02;101042.00;;;18.00
21336;BMP180;69435;52.670;13.544;2023-10-09T13:30:49;101033.00;;;18.10
21336;BMP180;69435;52.670;13.544;2023-10-09T13:33:36;101036.00;;;18.10
21336;BMP180;69435;52.670;13.544;2023-10-09T13:36:23;101029.00;;;18.20
21336;BMP180;69435;52.670;13.544;2023-10-09T13:39:17;101043.00;;;18.30
21336;BMP180;69435;52.670;13.544;2023-10-09T13:42:12;101038.00;;;18.40
21336;BMP180;69435;52.670;13.544;2023-10-09T13:44:58;101031.00;;;18.50
21336;BMP180;69435;52.670;13.544;2023-10-09T13:47:50;101053.00;;;18.50
21336;BMP180;69435;52.670;13.544;2023-10-09T13:50:36;101039.00;;;18.50
21336;BMP180;69435;52.670;13.544;2023-10-09T13:53:28;101034.00;;;18.60
21336;BMP180;69435;52.670;13.544;2023-10-09T13:56:18;101023.00;;;18.60
21336;BMP180;69435;52.670;13.544;2023-10-09T13:59:04;101068.00;;;18.70
21336;BMP180;69435;52.670;13.544;2023-10-09T14:01:56;101044.00;;;18.70
21336;BMP180;69435;52.670;13.544;2023-10-09T14:04:43;101042.00;;;18.70
21336;BMP180;69435;52.670;13.544;2023-10-09T14:07:29;100990.00;;;18.80
21336;BMP180;69435;52.670;13.544;2023-10-09T14:10:15;101007.00;;;18.80
21336;BMP180;69435;52.670;13.544;2023-10-09T14:13:09;101023.00;;;18.70
21336;BMP180;69435;52.670;13.544;2023-10-09T14:15:58;101041.00;;;18.70
21336;BMP180;69435;52.670;13.544;2023-10-09T14:18:47;101022.00;;;18.70
21336;BMP180;69435;52.670;13.544;2023-10-09T14:21:34;100997.00;;;18.60
21336;BMP180;69435;52.670;13.544;2023-10-09T14:24:23;101027.00;;;18.40
21336;BMP180;69435;52.670;13.544;2023-10-09T14:27:18;101007.00;;;18.40
21336;BMP180;69435;52.670;13.544;2023-10-09T14:30:05;101010.00;;;18.30
21336;BMP180;69435;52.670;13.544;2023-10-09T14:32:59;101019.00;;;18.20
21336;BMP180;69435;52.670;13.544;2023-10-09T14:35:47;101024.00;;;18.10
21336;BMP180;69435;52.670;13.544;2023-10-09T14:38:34;101023.00;;;18.00
21336;BMP180;69435;52.670;13.544;2023-10-09T14:41:24;101044.00;;;17.90
21336;BMP180;69435;52.670;13.544;2023-10-09T14:44:11;101029.00;;;17.90
21336;BMP180;69435;52.670;13.544;2023-10-09T14:47:02;101024.00;;;17.90
21336;BMP180;69435;52.670;13.544;2023-10-09T14:49:51;100997.00;;;17.80
21336;BMP180;69435;52.670;13.544;2023-10-09T14:52:40;101011.00;;;17.80
21336;BMP180;69435;52.670;13.544;2023-10-09T14:55:26;100992.00;;;17.70
21336;BMP180;69435;52.670;13.544;2023-10-09T14:58:17;101005.00;;;17.70
21336;BMP180;69435;52.670;13.544;2023-10-09T15:01:10;101028.00;;;17.70
21336;BMP180;69435;52.670;13.544;2023-10-09T15:03:59;101018.00;;;17.70
21336;BMP180;69435;52.670;13.544;2023-10-09T15:06:49;101004.00;;;17.60
21336;BMP180;69435;52.670;13.544;2023-10-09T15:09:36;101022.00;;;17.60
21336;BMP180;69435;52.670;13.544;2023-10-09T15:12:22;100988.00;;;17.50
21336;BMP180;69435;52.670;13.544;2023-10-09T15:15:10;100996.00;;;17.50
21336;BMP180;69435;52.670;13.544;2023-10-09T15:17:59;101021.00;;;17.40
21336;BMP180;69435;52.670;13.544;2023-10-09T15:20:47;101030.00;;;17.40
21336;BMP180;69435;52.670;13.544;2023-10-09T15:23:33;101023.00;;;17.40
21336;BMP180;69435;52.670;13.544;2023-10-09T15:26:22;101034.00;;;17.30
21336;BMP180;69435;52.670;13.544;2023-10-09T15:29:10;101021.00;;;17.30
21336;BMP180;69435;52.670;13.544;2023-10-09T15:31:57;101041.00;;;17.30
21336;BMP180;69435;52.670;13.544;2023-10-09T15:34:56;101031.00;;;17.30
21336;BMP180;69435;52.670;13.544;2023-10-09T15:37:42;101030.00;;;17.20
21336;BMP180;69435;52.670;13.544;2023-10-09T15:40:32;101046.00;;;17.30
21336;BMP180;69435;52.670;13.544;2023-10-09T15:43:22;101049.00;;;17.20
21336;BMP180;69435;52.670;13.544;2023-10-09T15:46:12;101059.00;;;17.10
21336;BMP180;69435;52.670;13.544;2023-10-09T15:49:00;101025.00;;;17.10
21336;BMP180;69435;52.670;13.544;2023-10-09T15:51:46;101049.00;;;17.10
21336;BMP180;69435;52.670;13.544;2023-10-09T15:54:32;101068.00;;;17.00
21336;BMP180;69435;52.670;13.544;2023-10-09T15:57:18;101067.00;;;17.00
21336;BMP180;69435;52.670;13.544;2023-10-09T16:00:07;101056.00;;;17.00
21336;BMP180;69435;52.670;13.544;2023-10-09T16:02:59;101049.00;;;17.00
21336;BMP180;69435;52.670;13.544;2023-10-09T16:05:46;101043.00;;;17.00